Time;durP1;ratioP1;P1;durP2;ratioP2;P2;SDS_P1;SDS_P2;PMS_P1;PMS_P2;Temp;Humidity;BMP_temperature;BMP_pressure;BME280_temperature;BME280_humidity;BME280_pressure;Samples;Min_cycle;Max_cycle;Signal;HPM_P1;HPM_P2
2023/01/28 00:01:52;;;;;;;7.72;3.97;;;;;;;;;;5029551;27;20508;-80
2023/01/28 00:04:40;;;;;;;;;;;;;;;;;;;;;
2023/01/28 01:01:53;;;;;;;10.43;4.25;;;;;;;;;;6209881;22;1498077;-76
2023/01/28 01:04:25;;;;;;;10.30;4.40;;;;;;;;;;6083698;23;20025;-76
2023/01/28 01:12:08;;;;;;;9.75;4.15;;;;;;;;;;5021094;27;20434;-74
2023/01/28 01:14:35;;;;;;;8.57;4.07;;;;;;;;;;4897209;29;20079;-77
2023/01/28 01:22:14;;;;;;;9.77;4.32;;;;;;;;;;5020722;27;20455;-76
2023/01/28 01:24:41;;;;;;;9.95;4.32;;;;;;;;;;4934487;28;20054;-76
2023/01/28 01:32:19;;;;;;;10.60;4.57;;;;;;;;;;4980667;27;20448;-76
2023/01/28 01:34:46;;;;;;;10.40;4.78;;;;;;;;;;4915084;28;20047;-77
2023/01/28 01:42:04;;;;;;;10.07;4.40;;;;;;;;;;4971545;27;20553;-75
2023/01/28 01:49:57;;;;;;;11.23;5.07;;;;;;;;;;4992821;27;20468;-76
2023/01/28 01:55:12;;;;;;;9.38;4.35;;;;;;;;;;4967403;27;20422;-75
2023/01/28 01:57:39;;;;;;;10.65;4.50;;;;;;;;;;4869625;29;20048;-75
2023/01/28 02:02:53;;;;;;;11.05;4.45;;;;;;;;;;4979620;27;20641;-77
2023/01/28 02:05:22;;;;;;;11.18;4.82;;;;;;;;;;4897135;28;20063;-77
2023/01/28 02:13:02;;;;;;;9.52;4.07;;;;;;;;;;4987494;27;20458;-78
2023/01/28 02:15:30;;;;;;;10.40;4.75;;;;;;;;;;4908369;28;20044;-77
2023/01/28 02:23:14;;;;;;;10.65;4.70;;;;;;;;;;4861776;28;20058;-75
2023/01/28 02:26:08;;;;;;;11.02;4.53;;;;;;;;;;4946849;28;20057;-76
2023/01/28 02:28:40;;;;;;;9.75;4.45;;;;;;;;;;4942033;28;20051;-76
2023/01/28 02:31:11;;;;;;;12.40;5.60;;;;;;;;;;4948757;28;21039;-75
2023/01/28 02:33:43;;;;;;;11.20;4.95;;;;;;;;;;4986956;28;20069;-76
2023/01/28 02:36:15;;;;;;;13.00;4.85;;;;;;;;;;4949012;28;20067;-75
2023/01/28 02:38:46;;;;;;;10.65;4.78;;;;;;;;;;4960153;28;20066;-76
2023/01/28 02:41:16;;;;;;;11.82;5.00;;;;;;;;;;4933918;28;20136;-76
2023/01/28 02:43:47;;;;;;;11.68;5.00;;;;;;;;;;4970025;28;20153;-76
2023/01/28 02:49:06;;;;;;;11.98;4.97;;;;;;;;;;4986883;28;20046;-76
2023/01/28 02:51:38;;;;;;;10.95;5.30;;;;;;;;;;4967934;28;20045;-76
2023/01/28 02:54:12;;;;;;;12.15;5.25;;;;;;;;;;4975286;28;20077;-76
2023/01/28 02:56:42;;;;;;;11.13;5.10;;;;;;;;;;4986704;28;20050;-76
2023/01/28 02:59:32;;;;;;;12.50;4.90;;;;;;;;;;4965642;28;20062;-76
2023/01/28 03:02:04;;;;;;;12.32;5.30;;;;;;;;;;4976004;28;20053;-76
2023/01/28 03:04:34;;;;;;;12.68;5.15;;;;;;;;;;4924378;28;20047;-75
2023/01/28 03:07:03;;;;;;;12.82;5.40;;;;;;;;;;4976817;28;20053;-75
2023/01/28 03:09:32;;;;;;;12.40;5.28;;;;;;;;;;4986545;28;20054;-76
2023/01/28 03:36:58;;;;;;;12.57;5.13;;;;;;;;;;4976499;28;20141;-75
2023/01/28 03:39:26;;;;;;;12.32;5.25;;;;;;;;;;4950034;28;20061;-75
2023/01/28 03:42:00;;;;;;;12.32;5.18;;;;;;;;;;4976822;28;20054;-76
2023/01/28 03:47:16;;;;;;;14.13;5.75;;;;;;;;;;4976663;28;20068;-76
2023/01/28 03:49:45;;;;;;;11.18;5.30;;;;;;;;;;4950828;28;20054;-76
2023/01/28 03:52:12;;;;;;;10.23;5.00;;;;;;;;;;4962234;28;20054;-76
2023/01/28 03:54:39;;;;;;;11.07;5.18;;;;;;;;;;4942867;28;20058;-76
2023/01/28 03:57:06;;;;;;;10.52;4.43;;;;;;;;;;4977118;28;20058;-75
2023/01/28 03:59:33;;;;;;;14.35;5.50;;;;;;;;;;4965789;28;20055;-76
2023/01/28 04:02:02;;;;;;;13.55;4.82;;;;;;;;;;4959345;28;20115;-75
2023/01/28 04:04:31;;;;;;;12.50;4.50;;;;;;;;;;4948656;28;20156;-76
2023/01/28 04:06:58;;;;;;;11.07;4.90;;;;;;;;;;4960598;28;20137;-76
2023/01/28 04:09:25;;;;;;;12.73;5.65;;;;;;;;;;4969629;28;20054;-76
2023/01/28 04:11:52;;;;;;;12.20;5.45;;;;;;;;;;4961235;28;20054;-76
2023/01/28 04:14:19;;;;;;;11.20;5.00;;;;;;;;;;4959916;28;20050;-77
2023/01/28 04:16:46;;;;;;;12.73;5.00;;;;;;;;;;4952625;28;20093;-76
2023/01/28 04:19:16;;;;;;;11.23;4.97;;;;;;;;;;4973373;28;20058;-76
2023/01/28 04:21:44;;;;;;;12.90;4.93;;;;;;;;;;4970145;28;20054;-76
2023/01/28 04:24:11;;;;;;;10.52;4.35;;;;;;;;;;4955463;28;20144;-76
2023/01/28 04:26:38;;;;;;;10.15;4.20;;;;;;;;;;4971057;28;20073;-75
2023/01/28 04:29:05;;;;;;;11.23;4.85;;;;;;;;;;4975836;28;20062;-76
2023/01/28 04:31:33;;;;;;;10.48;5.05;;;;;;;;;;4964253;28;20054;-76
2023/01/28 04:34:00;;;;;;;10.10;4.65;;;;;;;;;;4938222;28;20172;-76
2023/01/28 04:36:27;;;;;;;12.65;5.28;;;;;;;;;;4938975;28;20054;-76
2023/01/28 04:38:58;;;;;;;12.70;5.20;;;;;;;;;;4955767;28;20054;-76
2023/01/28 04:41:24;;;;;;;15.13;5.30;;;;;;;;;;4945328;28;20053;-76
2023/01/28 04:43:51;;;;;;;11.50;4.78;;;;;;;;;;4953276;28;20074;-75
2023/01/28 04:46:18;;;;;;;11.40;4.97;;;;;;;;;;4951613;28;20046;-75
2023/01/28 04:48:45;;;;;;;12.52;5.43;;;;;;;;;;4933659;28;20122;-76
2023/01/28 04:51:14;;;;;;;11.65;4.82;;;;;;;;;;4938065;28;20042;-77
2023/01/28 04:53:41;;;;;;;12.50;5.00;;;;;;;;;;4929423;28;20113;-76
2023/01/28 04:56:09;;;;;;;12.05;4.93;;;;;;;;;;4929591;28;20051;-76
2023/01/28 04:58:36;;;;;;;11.80;5.00;;;;;;;;;;4955625;28;20123;-76
2023/01/28 05:01:05;;;;;;;12.65;5.00;;;;;;;;;;4957832;28;20086;-77
2023/01/28 05:03:34;;;;;;;11.23;4.80;;;;;;;;;;4930707;28;20140;-76
2023/01/28 05:06:01;;;;;;;11.75;4.70;;;;;;;;;;4975421;28;20053;-76
2023/01/28 05:08:28;;;;;;;9.90;4.20;;;;;;;;;;4948674;28;20058;-76
2023/01/28 05:10:55;;;;;;;12.40;4.65;;;;;;;;;;4958739;28;20058;-76
2023/01/28 05:13:24;;;;;;;12.02;5.07;;;;;;;;;;4950509;28;20061;-76
2023/01/28 05:15:50;;;;;;;;;;;;;;;;;;4964356;28;20054;-75
2023/01/28 05:18:17;;;;;;;11.73;4.68;;;;;;;;;;4954955;28;20005;-76
2023/01/28 05:20:44;;;;;;;11.40;5.03;;;;;;;;;;4973932;28;20050;-76
2023/01/28 05:23:12;;;;;;;11.43;4.88;;;;;;;;;;4951422;28;20049;-76
2023/01/28 05:25:45;;;;;;;11.25;4.90;;;;;;;;;;4930560;28;20507;-76
2023/01/28 05:28:11;;;;;;;13.55;5.15;;;;;;;;;;4987338;28;20142;-75
2023/01/28 05:30:40;;;;;;;13.85;5.25;;;;;;;;;;4975004;28;20078;-76
2023/01/28 05:33:08;;;;;;;13.32;5.60;;;;;;;;;;4924760;28;20187;-76
2023/01/28 05:35:35;;;;;;;13.23;5.38;;;;;;;;;;4927013;28;20055;-76
2023/01/28 05:38:03;;;;;;;13.13;5.20;;;;;;;;;;4952728;28;20133;-76
2023/01/28 05:40:30;;;;;;;11.98;5.30;;;;;;;;;;4947904;28;20058;-76
2023/01/28 05:42:56;;;;;;;11.70;4.65;;;;;;;;;;4928781;28;20055;-76
2023/01/28 05:45:23;;;;;;;11.77;5.10;;;;;;;;;;4950610;28;20057;-76
2023/01/28 05:47:52;;;;;;;11.43;4.95;;;;;;;;;;4947117;28;20146;-76
2023/01/28 05:50:19;;;;;;;11.23;5.05;;;;;;;;;;4953966;28;20086;-75
2023/01/28 05:52:46;;;;;;;11.02;5.00;;;;;;;;;;4965837;28;20058;-76
2023/01/28 05:55:17;;;;;;;10.93;4.40;;;;;;;;;;4943360;28;20054;-76
2023/01/28 05:57:44;;;;;;;13.25;5.03;;;;;;;;;;4974990;28;20058;-76
2023/01/28 06:00:12;;;;;;;11.45;4.95;;;;;;;;;;4970118;28;20371;-76
2023/01/28 06:02:40;;;;;;;11.65;4.85;;;;;;;;;;4965414;28;20046;-75
2023/01/28 06:05:18;;;;;;;12.00;5.22;;;;;;;;;;4956231;28;20053;-76
2023/01/28 06:07:45;;;;;;;12.02;5.18;;;;;;;;;;4957997;28;20042;-76
2023/01/28 06:10:13;;;;;;;11.63;4.97;;;;;;;;;;4955288;28;20161;-76
2023/01/28 06:12:40;;;;;;;12.20;5.03;;;;;;;;;;4973801;28;20054;-76
2023/01/28 06:15:19;;;;;;;11.07;4.65;;;;;;;;;;4965792;28;20057;-76
2023/01/28 06:17:46;;;;;;;12.43;5.13;;;;;;;;;;4948992;28;20092;-76
2023/01/28 06:20:15;;;;;;;12.63;4.88;;;;;;;;;;4954712;28;20069;-77
2023/01/28 06:22:42;;;;;;;11.02;4.47;;;;;;;;;;4973678;28;20054;-76
2023/01/28 06:25:10;;;;;;;12.05;4.82;;;;;;;;;;4918937;28;20069;-76
2023/01/28 06:27:37;;;;;;;10.88;5.10;;;;;;;;;;4946778;28;20066;-76
2023/01/28 06:30:09;;;;;;;11.40;5.38;;;;;;;;;;4929515;28;20042;-77
2023/01/28 06:32:38;;;;;;;10.23;4.90;;;;;;;;;;4952755;28;20055;-76
2023/01/28 06:35:10;;;;;;;10.93;5.07;;;;;;;;;;4942559;28;20050;-76
2023/01/28 06:37:39;;;;;;;12.48;5.47;;;;;;;;;;4939842;28;20183;-76
2023/01/28 06:40:10;;;;;;;;;;;;;;;;;;4955764;28;20073;-76
2023/01/28 06:42:36;;;;;;;12.40;5.30;;;;;;;;;;4967693;28;19926;-76
2023/01/28 06:45:07;;;;;;;10.68;4.97;;;;;;;;;;4946601;28;20073;-76
2023/01/28 06:47:33;;;;;;;11.57;5.13;;;;;;;;;;4940973;28;20047;-76
2023/01/28 06:50:02;;;;;;;12.02;4.90;;;;;;;;;;4966980;28;20058;-76
2023/01/28 06:52:29;;;;;;;11.65;5.25;;;;;;;;;;4955038;28;20046;-76
2023/01/28 06:54:57;;;;;;;11.68;4.93;;;;;;;;;;4953288;28;20054;-76
2023/01/28 06:57:24;;;;;;;;;;;;;;;;;;4962525;28;20058;-77
2023/01/28 06:59:51;;;;;;;11.98;5.00;;;;;;;;;;4968880;28;19930;-76
2023/01/28 07:02:18;;;;;;;11.73;4.80;;;;;;;;;;4973611;28;20054;-76
2023/01/28 07:04:46;;;;;;;13.10;4.90;;;;;;;;;;4955106;28;20061;-77
2023/01/28 07:07:14;;;;;;;13.73;5.28;;;;;;;;;;4965626;28;20057;-77
2023/01/28 07:09:41;;;;;;;11.77;5.47;;;;;;;;;;4968007;28;20081;-76
2023/01/28 07:12:09;;;;;;;12.25;5.07;;;;;;;;;;4972669;28;20054;-76
2023/01/28 07:14:36;;;;;;;11.73;5.28;;;;;;;;;;4971863;28;20050;-77
2023/01/28 07:17:03;;;;;;;11.73;4.90;;;;;;;;;;4960194;28;20047;-75
2023/01/28 07:19:30;;;;;;;13.98;5.28;;;;;;;;;;4959218;28;20066;-76
2023/01/28 07:21:59;;;;;;;12.82;5.15;;;;;;;;;;4968854;28;20058;-76
2023/01/28 07:24:26;;;;;;;11.30;4.75;;;;;;;;;;4939307;28;20058;-76
2023/01/28 07:26:53;;;;;;;12.85;5.03;;;;;;;;;;4960235;28;20061;-76
2023/01/28 07:29:22;;;;;;;13.70;5.53;;;;;;;;;;4971508;28;20082;-77
2023/01/28 07:31:48;;;;;;;;;;;;;;;;;;4971546;28;20097;-77
2023/01/28 07:34:15;;;;;;;10.70;5.15;;;;;;;;;;4945798;28;19932;-76
2023/01/28 07:36:42;;;;;;;14.98;5.50;;;;;;;;;;4953889;28;20054;-76
2023/01/28 07:39:09;;;;;;;14.70;5.55;;;;;;;;;;4940801;28;20077;-76
2023/01/28 07:41:39;;;;;;;11.77;5.35;;;;;;;;;;4960480;28;20269;-76
2023/01/28 07:44:06;;;;;;;11.30;5.10;;;;;;;;;;4958970;28;20054;-76
2023/01/28 07:46:34;;;;;;;11.40;5.13;;;;;;;;;;4957723;28;20058;-77
2023/01/28 07:49:04;;;;;;;11.85;5.03;;;;;;;;;;4947660;28;20092;-76
2023/01/28 07:51:31;;;;;;;11.98;5.45;;;;;;;;;;4949011;28;20058;-76
2023/01/28 07:53:58;;;;;;;10.52;4.78;;;;;;;;;;4939771;28;20063;-76
2023/01/28 07:56:28;;;;;;;11.95;5.32;;;;;;;;;;4941467;28;20070;-76
2023/01/28 07:58:55;;;;;;;11.20;4.78;;;;;;;;;;4946301;28;20150;-76
2023/01/28 08:01:22;;;;;;;14.35;5.35;;;;;;;;;;4928877;28;20088;-77
2023/01/28 08:03:51;;;;;;;13.35;5.28;;;;;;;;;;4931444;28;20047;-76
2023/01/28 08:06:17;;;;;;;12.45;5.13;;;;;;;;;;4970172;28;20054;-76
2023/01/28 08:08:44;;;;;;;12.38;5.38;;;;;;;;;;4972670;28;20057;-76
2023/01/28 08:11:16;;;;;;;15.23;5.60;;;;;;;;;;4976912;28;20049;-77
2023/01/28 08:13:43;;;;;;;13.45;5.63;;;;;;;;;;4945684;28;20054;-76
2023/01/28 08:16:10;;;;;;;12.02;5.45;;;;;;;;;;4966816;28;20058;-76
2023/01/28 08:18:36;;;;;;;13.50;5.53;;;;;;;;;;4975234;28;20058;-76
2023/01/28 08:21:05;;;;;;;12.45;5.60;;;;;;;;;;4948256;28;20058;-76
2023/01/28 08:23:33;;;;;;;;;;;;;;;;;;4938583;28;20314;-76
2023/01/28 08:26:00;;;;;;;10.87;4.63;;;;;;;;;;4942892;28;19926;-76
2023/01/28 08:28:29;;;;;;;11.85;5.18;;;;;;;;;;4935094;28;20301;-76
2023/01/28 08:30:59;;;;;;;11.93;5.28;;;;;;;;;;4953246;28;20050;-76
2023/01/28 08:33:26;;;;;;;13.73;5.47;;;;;;;;;;4956173;28;20137;-76
2023/01/28 08:35:53;;;;;;;13.77;5.63;;;;;;;;;;4964094;28;20096;-75
2023/01/28 08:38:22;;;;;;;11.35;5.15;;;;;;;;;;4975914;28;20054;-76
2023/01/28 08:40:52;;;;;;;11.32;4.47;;;;;;;;;;4972711;28;20354;-76
2023/01/28 08:43:20;;;;;;;13.25;5.20;;;;;;;;;;4952080;28;20147;-76
2023/01/28 08:45:47;;;;;;;11.82;5.28;;;;;;;;;;4953577;28;20059;-76
2023/01/28 08:48:15;;;;;;;12.52;5.85;;;;;;;;;;4977990;28;20058;-76
2023/01/28 08:50:42;;;;;;;12.95;5.65;;;;;;;;;;4964816;28;20058;-76
2023/01/28 08:53:14;;;;;;;12.30;5.40;;;;;;;;;;4971721;28;20054;-76
2023/01/28 08:55:44;;;;;;;11.13;5.20;;;;;;;;;;4964713;28;20141;-75
2023/01/28 08:58:11;;;;;;;11.88;5.38;;;;;;;;;;4961268;28;20076;-75
2023/01/28 09:00:39;;;;;;;11.95;5.18;;;;;;;;;;4946888;28;20050;-75
2023/01/28 09:03:09;;;;;;;11.63;5.38;;;;;;;;;;4918926;28;20050;-75
2023/01/28 09:05:36;;;;;;;13.30;5.28;;;;;;;;;;4910991;28;20054;-76
2023/01/28 09:08:04;;;;;;;15.35;6.20;;;;;;;;;;4929407;28;20054;-75
2023/01/28 09:10:31;;;;;;;12.50;5.53;;;;;;;;;;4940444;28;20114;-75
2023/01/28 09:13:00;;;;;;;15.10;6.22;;;;;;;;;;4922329;28;20392;-75
2023/01/28 09:15:26;;;;;;;12.70;5.50;;;;;;;;;;4965683;28;20108;-75
2023/01/28 09:17:58;;;;;;;12.57;5.45;;;;;;;;;;4939771;28;20077;-75
2023/01/28 09:20:26;;;;;;;13.02;5.38;;;;;;;;;;4941711;28;20058;-74
2023/01/28 09:22:53;;;;;;;12.48;5.53;;;;;;;;;;4939847;28;20136;-75
2023/01/28 09:25:23;;;;;;;12.38;5.35;;;;;;;;;;4926396;28;20133;-75
2023/01/28 09:27:55;;;;;;;12.60;5.25;;;;;;;;;;4962593;28;20057;-75
2023/01/28 09:30:23;;;;;;;12.52;5.07;;;;;;;;;;4979161;28;20058;-75
2023/01/28 09:32:50;;;;;;;11.18;4.97;;;;;;;;;;4973028;28;20224;-75
2023/01/28 09:35:18;;;;;;;12.13;5.05;;;;;;;;;;4960700;28;20133;-75
2023/01/28 09:37:49;;;;;;;10.85;4.75;;;;;;;;;;4956830;28;20062;-75
2023/01/28 09:40:17;;;;;;;11.52;4.93;;;;;;;;;;4969509;28;20053;-75
2023/01/28 09:42:50;;;;;;;13.43;5.28;;;;;;;;;;4958769;28;20065;-75
2023/01/28 09:45:21;;;;;;;11.20;5.10;;;;;;;;;;4974933;28;20061;-75
2023/01/28 09:47:50;;;;;;;9.88;4.40;;;;;;;;;;4973928;28;20152;-75
2023/01/28 09:50:19;;;;;;;10.60;4.57;;;;;;;;;;4977273;28;20054;-75
2023/01/28 09:52:46;;;;;;;;;;;;;;;;;;4966826;28;20053;-75
2023/01/28 09:55:18;;;;;;;11.45;5.07;;;;;;;;;;4937135;28;19931;-75
2023/01/28 09:57:46;;;;;;;12.75;5.07;;;;;;;;;;4965590;28;20182;-77
2023/01/28 10:00:14;;;;;;;12.30;5.30;;;;;;;;;;4967672;28;20271;-75
2023/01/28 10:02:49;;;;;;;12.10;5.28;;;;;;;;;;4956020;28;20050;-75
2023/01/28 10:05:27;;;;;;;13.23;5.28;;;;;;;;;;4958953;28;20082;-75
2023/01/28 10:07:56;;;;;;;12.52;5.18;;;;;;;;;;4956912;28;20061;-75
2023/01/28 10:10:27;;;;;;;14.48;4.90;;;;;;;;;;4949851;28;20073;-75
2023/01/28 10:13:01;;;;;;;11.65;5.50;;;;;;;;;;4958631;28;20070;-74
2023/01/28 10:15:43;;;;;;;10.85;4.63;;;;;;;;;;4926951;28;20116;-75
2023/01/28 10:18:10;;;;;;;11.73;5.07;;;;;;;;;;4957463;28;20051;-75
2023/01/28 10:20:42;;;;;;;10.93;5.03;;;;;;;;;;4950791;28;20043;-75
2023/01/28 10:23:16;;;;;;;10.25;4.65;;;;;;;;;;4951277;28;20057;-75
2023/01/28 10:25:46;;;;;;;11.45;4.90;;;;;;;;;;4924849;28;20106;-75
2023/01/28 10:28:18;;;;;;;13.32;5.03;;;;;;;;;;4950796;28;20063;-75
2023/01/28 10:30:45;;;;;;;12.23;5.32;;;;;;;;;;4942837;28;20047;-76
2023/01/28 10:33:19;;;;;;;11.63;4.50;;;;;;;;;;4936450;28;20054;-75
2023/01/28 10:35:55;;;;;;;11.60;5.35;;;;;;;;;;4942984;28;20058;-74
2023/01/28 12:32:03;;;;;;;7.20;3.25;;;;;;;;;;6189726;22;20029;-73
2023/01/28 12:34:43;;;;;;;7.93;3.30;;;;;;;;;;6054967;22;20126;-74
2023/01/28 12:37:18;;;;;;;8.15;3.00;;;;;;;;;;6079231;23;20032;-73
2023/01/28 12:39:56;;;;;;;6.90;3.13;;;;;;;;;;6011193;23;20046;-75
2023/01/28 12:42:27;;;;;;;9.63;3.47;;;;;;;;;;6057696;23;20021;-74
2023/01/28 12:45:01;;;;;;;6.28;2.88;;;;;;;;;;6022770;22;20060;-74
2023/01/28 12:47:33;;;;;;;8.25;3.05;;;;;;;;;;6152624;23;20014;-75
2023/01/28 12:50:05;;;;;;;9.18;3.20;;;;;;;;;;6080669;22;20041;-74
2023/01/28 12:52:43;;;;;;;6.93;2.83;;;;;;;;;;6074704;23;20054;-75
2023/01/28 12:55:16;;;;;;;5.82;2.70;;;;;;;;;;6049606;23;20032;-76
2023/01/28 12:57:44;;;;;;;7.85;3.40;;;;;;;;;;6128377;22;20018;-77
2023/01/28 13:00:21;;;;;;;7.53;3.08;;;;;;;;;;6050089;23;20025;-76
2023/01/28 13:02:56;;;;;;;8.65;3.45;;;;;;;;;;6061154;22;20022;-76
2023/01/28 13:05:30;;;;;;;7.63;2.92;;;;;;;;;;6148412;22;20022;-75
2023/01/28 13:08:00;;;;;;;5.68;2.60;;;;;;;;;;6083766;22;20029;-76
2023/01/28 13:10:28;;;;;;;7.20;3.05;;;;;;;;;;6069952;23;20029;-75
2023/01/28 13:12:55;;;;;;;;;;;;;;;;;;6069000;23;20036;-75
2023/01/28 13:15:24;;;;;;;5.10;2.35;;;;;;;;;;6109125;22;19919;-75
2023/01/28 13:17:58;;;;;;;5.75;2.33;;;;;;;;;;6079352;23;20034;-74
2023/01/28 13:20:39;;;;;;;6.38;2.88;;;;;;;;;;6059136;23;20067;-74
2023/01/28 13:23:07;;;;;;;5.97;2.85;;;;;;;;;;6049564;23;20033;-74
2023/01/28 13:25:34;;;;;;;;;;;;;;;;;;6022771;22;20105;-75
2023/01/28 13:28:02;;;;;;;7.68;2.88;;;;;;;;;;6073168;23;19921;-74
2023/01/28 13:30:30;;;;;;;8.63;3.00;;;;;;;;;;6048254;23;20073;-74
2023/01/28 13:33:01;;;;;;;6.97;2.80;;;;;;;;;;6179453;22;20031;-74
2023/01/28 13:35:32;;;;;;;6.32;2.78;;;;;;;;;;6146137;22;20045;-74
2023/01/28 13:38:07;;;;;;;5.78;2.67;;;;;;;;;;6234972;22;20122;-74
2023/01/28 13:40:34;;;;;;;7.45;2.78;;;;;;;;;;6200970;22;20028;-74
2023/01/28 13:43:04;;;;;;;7.22;2.90;;;;;;;;;;6237101;22;20031;-75
2023/01/28 13:45:32;;;;;;;7.05;3.30;;;;;;;;;;6152984;22;20040;-75
2023/01/28 16:21:00;;;;;;;13.27;6.00;;;;;;;;;;6165800;22;1607027;-76
2023/01/28 16:23:27;;;;;;;11.50;4.63;;;;;;;;;;6132574;22;20040;-75
2023/01/28 16:28:46;;;;;;;11.00;4.95;;;;;;;;;;6080164;21;2422896;-74
2023/01/28 16:31:13;;;;;;;11.68;5.13;;;;;;;;;;6041703;23;20050;-76
2023/01/28 16:38:27;;;;;;;13.43;5.00;;;;;;;;;;4951657;27;20455;-75
2023/01/28 16:48:30;;;;;;;12.75;5.47;;;;;;;;;;4992467;27;20488;-77
2023/01/28 16:50:58;;;;;;;11.05;5.13;;;;;;;;;;4912734;28;20054;-76
2023/01/28 17:09:05;;;;;;;12.30;4.88;;;;;;;;;;5033124;27;20139;-77
2023/01/28 17:19:08;;;;;;;14.32;5.22;;;;;;;;;;4909249;27;4288859;-76
2023/01/28 17:21:42;;;;;;;11.27;5.38;;;;;;;;;;4963746;28;20262;-76
2023/01/28 17:29:20;;;;;;;11.50;5.10;;;;;;;;;;5017208;27;20452;-77
2023/01/28 17:31:47;;;;;;;11.43;5.38;;;;;;;;;;4923935;28;20272;-77
2023/01/28 17:39:31;;;;;;;12.30;5.13;;;;;;;;;;4961951;27;1509949;-76
2023/01/28 17:49:40;;;;;;;11.15;5.03;;;;;;;;;;4982444;27;20597;-75
2023/01/28 17:52:12;;;;;;;10.75;5.32;;;;;;;;;;4911123;28;20055;-77
